createdAt,value
2023-03-28T00:01:25.480Z,1.70
2023-03-28T00:03:54.996Z,1.70
2023-03-28T00:06:25.450Z,1.70
2023-03-28T00:08:54.497Z,1.70
2023-03-28T00:11:23.288Z,1.70
2023-03-28T00:13:58.427Z,1.40
2023-03-28T00:16:32.912Z,1.60
2023-03-28T00:19:03.608Z,1.50
2023-03-28T00:21:35.866Z,1.50
2023-03-28T00:24:07.007Z,1.60
2023-03-28T00:26:36.480Z,1.60
2023-03-28T00:29:07.128Z,1.80
2023-03-28T00:31:38.749Z,1.50
2023-03-28T00:34:07.884Z,1.30
2023-03-28T00:36:40.048Z,1.50
2023-03-28T00:39:10.937Z,2.10
2023-03-28T00:41:43.133Z,2.20
2023-03-28T00:44:42.451Z,1.70
2023-03-28T00:47:37.188Z,2.00
2023-03-28T00:50:09.202Z,1.90
2023-03-28T00:52:42.809Z,1.60
2023-03-28T00:55:18.170Z,1.20
2023-03-28T00:57:50.564Z,1.70
2023-03-28T01:00:22.180Z,1.80
2023-03-28T01:02:53.743Z,2.60
2023-03-28T01:05:28.023Z,1.80
2023-03-28T01:08:10.033Z,1.50
2023-03-28T01:10:39.534Z,1.80
2023-03-28T01:13:08.724Z,1.40
2023-03-28T01:15:38.433Z,2.50
2023-03-28T01:18:11.838Z,2.00
2023-03-28T01:21:14.628Z,2.30
2023-03-28T01:24:14.023Z,1.90
2023-03-28T01:27:04.215Z,1.80
2023-03-28T01:29:55.217Z,2.40
2023-03-28T01:32:39.422Z,2.60
2023-03-28T01:35:41.392Z,2.00
2023-03-28T01:38:16.918Z,1.90
2023-03-28T01:41:05.651Z,2.70
2023-03-28T01:43:52.873Z,1.90
2023-03-28T01:46:39.161Z,1.50
2023-03-28T01:49:12.042Z,1.80
2023-03-28T01:51:44.729Z,2.20
2023-03-28T01:54:29.414Z,2.00
2023-03-28T01:57:23.795Z,2.30
2023-03-28T02:00:01.624Z,1.60
2023-03-28T02:02:51.760Z,2.20
2023-03-28T02:05:33.051Z,1.90
2023-03-28T02:08:05.228Z,1.90
2023-03-28T02:10:51.221Z,3.00
2023-03-28T02:13:49.677Z,2.10
2023-03-28T02:16:50.375Z,2.30
2023-03-28T02:19:44.588Z,2.30
2023-03-28T02:22:51.599Z,2.60
2023-03-28T02:25:39.646Z,3.10
2023-03-28T02:28:44.976Z,2.60
2023-03-28T02:31:48.308Z,2.70
2023-03-28T02:34:17.058Z,2.80
2023-03-28T02:36:58.242Z,3.20
2023-03-28T02:39:39.928Z,3.20
2023-03-28T02:42:27.552Z,3.20
2023-03-28T02:45:25.649Z,3.60
2023-03-28T02:48:06.371Z,3.20
2023-03-28T02:51:04.871Z,3.00
2023-03-28T02:53:40.026Z,2.30
2023-03-28T02:56:14.496Z,2.70
2023-03-28T02:59:19.469Z,4.90
2023-03-28T03:01:48.363Z,3.20
2023-03-28T03:04:18.186Z,3.10
2023-03-28T03:06:48.800Z,3.10
2023-03-28T03:09:18.953Z,2.50
2023-03-28T03:11:47.711Z,2.80
2023-03-28T03:14:16.397Z,2.40
2023-03-28T03:16:45.622Z,3.10
2023-03-28T03:19:14.896Z,2.60
2023-03-28T03:21:43.716Z,2.70
2023-03-28T03:24:14.838Z,3.10
2023-03-28T03:26:45.802Z,2.10
2023-03-28T03:29:18.259Z,2.00
2023-03-28T03:31:47.570Z,3.50
2023-03-28T03:34:54.833Z,2.00
2023-03-28T03:37:23.620Z,2.80
2023-03-28T03:39:52.638Z,2.70
2023-03-28T03:42:27.160Z,2.20
2023-03-28T03:44:55.822Z,2.10
2023-03-28T03:47:25.696Z,2.40
2023-03-28T03:49:54.527Z,2.40
2023-03-28T03:52:24.405Z,2.10
2023-03-28T03:54:53.142Z,2.20
2023-03-28T03:57:24.095Z,1.50
2023-03-28T03:59:59.520Z,2.20
2023-03-28T04:02:28.911Z,1.70
2023-03-28T04:05:05.272Z,2.50
2023-03-28T04:07:48.914Z,1.90
2023-03-28T04:10:28.854Z,1.80
2023-03-28T04:12:57.658Z,1.70
2023-03-28T04:15:27.675Z,1.50
2023-03-28T04:18:25.533Z,1.60
2023-03-28T04:20:55.656Z,1.90
2023-03-28T04:23:44.136Z,1.90
2023-03-28T04:26:56.325Z,1.60
2023-03-28T04:29:31.249Z,1.90
2023-03-28T04:32:19.377Z,2.00
2023-03-28T04:35:09.992Z,1.50
2023-03-28T04:37:39.169Z,1.90
2023-03-28T04:40:12.603Z,1.60
2023-03-28T04:42:48.724Z,1.80
2023-03-28T04:45:26.168Z,1.50
2023-03-28T04:47:55.192Z,1.20
2023-03-28T04:50:24.414Z,1.30
2023-03-28T04:52:53.837Z,1.30
2023-03-28T04:55:22.522Z,1.10
2023-03-28T04:57:54.518Z,1.70
2023-03-28T05:00:23.764Z,1.20
2023-03-28T05:03:01.905Z,1.10
2023-03-28T05:05:33.615Z,1.30
2023-03-28T05:08:03.654Z,1.70
2023-03-28T05:10:32.530Z,1.40
2023-03-28T05:13:06.063Z,1.50
2023-03-28T05:15:42.626Z,1.70
2023-03-28T05:18:34.429Z,1.70
2023-03-28T05:21:03.545Z,1.80
2023-03-28T05:23:32.542Z,1.30
2023-03-28T05:26:02.947Z,1.30
2023-03-28T05:28:33.260Z,1.60
2023-03-28T05:31:02.207Z,1.70
2023-03-28T05:33:32.786Z,1.30
2023-03-28T05:36:02.710Z,1.60
2023-03-28T05:38:34.373Z,1.80
2023-03-28T05:41:08.512Z,1.50
2023-03-28T05:43:37.247Z,1.40
2023-03-28T05:46:07.158Z,1.50
2023-03-28T05:48:43.030Z,2.00
2023-03-28T05:51:19.192Z,1.40
2023-03-28T05:53:49.634Z,2.30
2023-03-28T05:56:18.808Z,1.50
2023-03-28T05:58:48.923Z,1.20
2023-03-28T06:01:18.948Z,1.30
2023-03-28T06:03:52.906Z,1.70
2023-03-28T06:06:23.463Z,1.80
2023-03-28T06:08:53.509Z,1.60
2023-03-28T06:11:23.215Z,2.10
2023-03-28T06:14:08.913Z,2.00
2023-03-28T06:16:38.881Z,2.00
2023-03-28T06:19:17.738Z,2.60
2023-03-28T06:21:53.466Z,1.60
2023-03-28T06:24:24.656Z,2.10
2023-03-28T06:26:53.306Z,1.30
2023-03-28T06:29:24.151Z,1.80
2023-03-28T06:32:01.027Z,1.80
2023-03-28T06:34:30.578Z,1.80
2023-03-28T06:37:04.462Z,1.80
2023-03-28T06:39:46.755Z,1.70
2023-03-28T06:42:16.258Z,1.60
2023-03-28T06:44:53.429Z,1.90
2023-03-28T06:47:31.466Z,1.40
2023-03-28T06:50:00.574Z,1.90
2023-03-28T06:52:41.116Z,1.70
2023-03-28T06:55:11.245Z,1.70
2023-03-28T06:57:41.646Z,1.80
2023-03-28T07:00:18.537Z,1.50
2023-03-28T07:03:16.852Z,2.10
2023-03-28T07:05:46.210Z,1.80
2023-03-28T07:08:16.084Z,1.50
2023-03-28T07:10:45.725Z,2.20
2023-03-28T07:13:15.124Z,2.30
2023-03-28T07:16:05.321Z,1.80
2023-03-28T07:18:34.722Z,1.60
2023-03-28T07:21:09.588Z,1.80
2023-03-28T07:23:40.178Z,1.60
2023-03-28T07:26:10.886Z,1.60
2023-03-28T07:28:41.951Z,1.60
2023-03-28T07:31:11.813Z,1.60
2023-03-28T07:33:41.598Z,2.20
2023-03-28T07:36:16.310Z,3.10
2023-03-28T07:38:49.281Z,1.90
2023-03-28T07:41:20.568Z,1.80
2023-03-28T07:43:49.223Z,1.60
2023-03-28T07:46:21.714Z,1.80
2023-03-28T07:48:51.208Z,2.00
2023-03-28T07:51:20.494Z,1.90
2023-03-28T07:53:49.417Z,2.10
2023-03-28T07:56:18.372Z,1.40
2023-03-28T07:59:06.037Z,1.30
2023-03-28T08:01:35.220Z,2.10
2023-03-28T08:04:05.467Z,1.80
2023-03-28T08:06:42.210Z,1.60
2023-03-28T08:09:13.545Z,2.20
2023-03-28T08:11:45.266Z,1.60
2023-03-28T08:14:16.689Z,1.80
2023-03-28T08:16:46.697Z,1.80
2023-03-28T08:19:15.878Z,2.50
2023-03-28T08:22:04.939Z,1.50
2023-03-28T08:24:39.057Z,1.10
2023-03-28T08:27:16.748Z,2.20
2023-03-28T08:29:46.903Z,1.30
2023-03-28T08:32:16.467Z,1.30
2023-03-28T08:34:45.455Z,1.40
2023-03-28T08:37:17.332Z,1.80
2023-03-28T08:39:48.880Z,1.70
2023-03-28T08:42:37.021Z,1.50
2023-03-28T08:45:12.984Z,1.60
2023-03-28T08:47:54.307Z,1.00
2023-03-28T08:50:33.488Z,1.50
2023-03-28T08:53:03.402Z,2.00
2023-03-28T08:55:33.219Z,1.40
2023-03-28T08:58:02.645Z,1.50
2023-03-28T09:00:39.818Z,1.40
2023-03-28T09:03:17.528Z,1.70
2023-03-28T09:06:05.414Z,1.60
2023-03-28T09:08:40.310Z,1.30
2023-03-28T09:11:18.542Z,1.30
2023-03-28T09:13:57.198Z,1.80
2023-03-28T09:16:34.832Z,1.50
2023-03-28T09:19:52.929Z,1.30
2023-03-28T09:23:06.682Z,1.30
2023-03-28T09:26:03.536Z,1.50
2023-03-28T09:28:55.239Z,1.60
2023-03-28T09:31:28.263Z,1.80
2023-03-28T09:34:00.617Z,2.20
2023-03-28T09:36:49.100Z,1.70
2023-03-28T09:39:34.764Z,1.60
2023-03-28T09:42:28.116Z,1.30
2023-03-28T09:45:30.819Z,1.40
2023-03-28T09:48:29.177Z,2.00
2023-03-28T09:51:03.410Z,1.20
2023-03-28T09:53:35.906Z,2.00
2023-03-28T09:56:25.127Z,1.30
2023-03-28T09:58:59.658Z,1.10
2023-03-28T10:01:50.374Z,1.50
2023-03-28T10:04:29.936Z,1.10
2023-03-28T10:07:27.860Z,1.50
2023-03-28T10:09:59.147Z,1.10
2023-03-28T10:12:36.964Z,0.90
2023-03-28T10:15:09.363Z,1.00
2023-03-28T10:18:03.220Z,0.90
2023-03-28T10:20:38.086Z,1.20
2023-03-28T10:23:07.481Z,1.20
2023-03-28T10:25:44.716Z,1.20
2023-03-28T10:28:22.626Z,1.40
2023-03-28T10:30:58.553Z,1.40
2023-03-28T10:33:37.813Z,1.50
2023-03-28T10:36:34.495Z,1.00
2023-03-28T10:39:29.685Z,1.00
2023-03-28T10:42:28.005Z,1.20
2023-03-28T10:45:27.002Z,0.90
2023-03-28T10:47:59.513Z,1.90
2023-03-28T10:50:44.798Z,0.90
2023-03-28T10:53:32.389Z,0.90
2023-03-28T10:56:14.682Z,1.10
2023-03-28T10:59:09.346Z,1.10
2023-03-28T11:02:05.097Z,1.20
2023-03-28T11:04:56.504Z,1.20
2023-03-28T11:07:41.865Z,1.20
2023-03-28T11:10:36.777Z,1.30
2023-03-28T11:13:50.319Z,1.50
2023-03-28T11:16:41.142Z,1.20
2023-03-28T11:19:38.468Z,1.40
2023-03-28T11:22:16.995Z,0.90
2023-03-28T11:24:56.022Z,1.40
2023-03-28T11:27:53.980Z,1.10
2023-03-28T11:30:34.354Z,1.00
2023-03-28T11:33:34.646Z,1.00
2023-03-28T11:36:13.934Z,0.90
2023-03-28T11:38:45.389Z,1.40
2023-03-28T11:41:20.214Z,1.70
2023-03-28T11:44:06.404Z,1.70
2023-03-28T11:46:46.809Z,1.30
2023-03-28T11:49:26.618Z,1.20
2023-03-28T11:52:21.104Z,1.60
2023-03-28T11:55:42.608Z,1.00
2023-03-28T11:58:26.240Z,1.20
2023-03-28T12:01:09.876Z,1.20
2023-03-28T12:04:02.629Z,1.20
2023-03-28T12:06:59.536Z,1.00
2023-03-28T12:09:57.941Z,1.10
2023-03-28T12:12:53.051Z,1.60
2023-03-28T12:15:29.001Z,1.00
2023-03-28T12:18:13.595Z,1.30
2023-03-28T12:21:06.008Z,1.10
2023-03-28T12:23:43.437Z,1.10
2023-03-28T12:26:40.356Z,1.40
2023-03-28T12:29:26.018Z,1.30
2023-03-28T12:32:00.645Z,1.10
2023-03-28T12:34:34.573Z,1.40
2023-03-28T12:37:35.768Z,1.30
2023-03-28T12:40:37.375Z,1.30
2023-03-28T12:43:08.014Z,1.10
2023-03-28T12:45:45.681Z,1.50
2023-03-28T12:48:20.533Z,1.60
2023-03-28T12:50:53.918Z,1.60
2023-03-28T12:53:24.875Z,1.60
2023-03-28T12:55:53.865Z,1.30
2023-03-28T12:58:30.043Z,1.10
2023-03-28T13:01:35.217Z,1.40
2023-03-28T13:04:29.228Z,1.60
2023-03-28T13:07:36.625Z,1.40
2023-03-28T13:10:44.654Z,1.50
2023-03-28T13:13:41.527Z,1.60
2023-03-28T13:16:13.370Z,1.70
2023-03-28T13:19:09.992Z,1.30
2023-03-28T13:21:48.067Z,1.40
2023-03-28T13:24:29.278Z,1.30
2023-03-28T13:27:07.157Z,1.30
2023-03-28T13:29:51.020Z,1.50
2023-03-28T13:32:23.952Z,1.50
2023-03-28T13:34:58.100Z,1.50
2023-03-28T13:37:45.014Z,1.40
2023-03-28T13:40:42.188Z,1.30
2023-03-28T13:43:30.102Z,1.60
2023-03-28T13:46:03.293Z,1.20
2023-03-28T13:48:39.153Z,1.20
2023-03-28T13:51:08.963Z,1.30
2023-03-28T13:53:47.436Z,1.30
2023-03-28T13:56:28.274Z,1.30
2023-03-28T13:58:58.936Z,1.40
2023-03-28T14:01:35.456Z,1.40
2023-03-28T14:04:12.699Z,1.60
2023-03-28T14:06:42.723Z,1.30
2023-03-28T14:09:28.468Z,1.80
2023-03-28T14:12:08.785Z,1.70
2023-03-28T14:14:41.584Z,1.80
2023-03-28T14:17:25.198Z,1.80
2023-03-28T14:19:56.043Z,1.80
2023-03-28T14:22:43.205Z,1.90
2023-03-28T14:25:24.018Z,1.70
2023-03-28T14:27:54.903Z,1.70
2023-03-28T14:30:23.672Z,1.60
2023-03-28T14:33:01.460Z,1.50
2023-03-28T14:35:32.693Z,1.40
2023-03-28T14:38:06.751Z,1.40
2023-03-28T14:40:38.079Z,1.60
2023-03-28T14:43:20.478Z,1.30
2023-03-28T14:45:53.080Z,1.40
2023-03-28T14:48:27.732Z,1.80
2023-03-28T14:50:57.516Z,1.30
2023-03-28T14:53:32.121Z,1.80
2023-03-28T14:56:09.160Z,1.80
2023-03-28T14:58:41.895Z,1.80
2023-03-28T15:01:16.398Z,2.00
2023-03-28T15:03:46.836Z,1.50
2023-03-28T15:06:18.193Z,1.40
2023-03-28T15:08:48.031Z,1.70
2023-03-28T15:11:32.958Z,1.30
2023-03-28T15:14:14.348Z,1.80
2023-03-28T15:16:45.165Z,1.30
2023-03-28T15:19:23.898Z,1.30
2023-03-28T15:22:00.217Z,1.60
2023-03-28T15:24:29.472Z,1.50
2023-03-28T15:27:02.512Z,1.30
2023-03-28T15:29:38.838Z,1.10
2023-03-28T15:32:18.650Z,1.10
2023-03-28T15:34:58.914Z,1.80
2023-03-28T15:37:28.712Z,1.60
2023-03-28T15:40:16.961Z,1.40
2023-03-28T15:42:52.304Z,1.60
2023-03-28T15:45:21.616Z,1.50
2023-03-28T15:47:55.508Z,1.30
2023-03-28T15:50:33.950Z,1.80
2023-03-28T15:53:08.345Z,1.40
2023-03-28T15:55:37.537Z,1.40
2023-03-28T15:58:07.151Z,1.50
2023-03-28T16:00:50.679Z,1.40
2023-03-28T16:03:27.416Z,1.50
2023-03-28T16:06:10.288Z,1.10
2023-03-28T16:08:47.470Z,1.00
2023-03-28T16:11:24.115Z,1.60
2023-03-28T16:14:20.603Z,1.30
2023-03-28T16:17:07.924Z,1.30
2023-03-28T16:19:49.107Z,1.60
2023-03-28T16:22:17.757Z,1.30
2023-03-28T16:24:46.744Z,1.30
2023-03-28T16:27:16.159Z,1.30
2023-03-28T16:29:46.075Z,1.00
2023-03-28T16:32:19.061Z,1.80
2023-03-28T16:34:49.279Z,1.40
2023-03-28T16:37:18.875Z,1.50
2023-03-28T16:39:48.592Z,1.40
2023-03-28T16:42:18.877Z,1.30
2023-03-28T16:44:47.997Z,1.60
2023-03-28T16:47:17.004Z,1.30
2023-03-28T16:49:47.361Z,2.00
2023-03-28T16:52:18.060Z,1.20
2023-03-28T16:54:51.604Z,1.50
2023-03-28T16:57:21.014Z,1.10
2023-03-28T16:59:51.020Z,1.40
2023-03-28T17:02:21.060Z,1.30
2023-03-28T17:04:51.353Z,1.30
2023-03-28T17:07:21.948Z,1.10
2023-03-28T17:09:52.575Z,1.80
2023-03-28T17:12:23.402Z,1.80
2023-03-28T17:14:53.649Z,1.70
2023-03-28T17:17:23.045Z,1.30
2023-03-28T17:19:54.016Z,1.50
2023-03-28T17:22:23.176Z,1.40
2023-03-28T17:24:52.152Z,1.20
2023-03-28T17:27:23.877Z,1.10
2023-03-28T17:29:55.087Z,1.80
2023-03-28T17:32:26.032Z,1.60
2023-03-28T17:34:56.428Z,1.60
2023-03-28T17:37:27.165Z,1.60
2023-03-28T17:39:57.673Z,1.80
2023-03-28T17:42:28.123Z,1.10
2023-03-28T17:44:58.815Z,1.60
2023-03-28T17:47:29.101Z,2.20
2023-03-28T17:50:01.338Z,1.90
2023-03-28T17:52:42.521Z,2.50
2023-03-28T17:55:13.613Z,3.30
2023-03-28T17:57:47.255Z,1.80
2023-03-28T18:00:20.666Z,2.40
2023-03-28T18:02:51.916Z,2.00
2023-03-28T18:05:38.361Z,1.80
2023-03-28T18:08:17.581Z,2.10
2023-03-28T18:10:49.352Z,2.50
2023-03-28T18:13:22.524Z,3.00
2023-03-28T18:15:55.172Z,3.10
2023-03-28T18:18:25.619Z,2.90
2023-03-28T18:20:55.697Z,3.10
2023-03-28T18:23:26.974Z,2.70
2023-03-28T18:25:58.814Z,2.90
2023-03-28T18:28:30.304Z,2.70
2023-03-28T18:31:15.364Z,2.60
2023-03-28T18:33:46.732Z,2.20
2023-03-28T18:36:17.665Z,2.60
2023-03-28T18:38:48.356Z,2.80
2023-03-28T18:41:19.227Z,2.60
2023-03-28T18:43:51.475Z,2.70
2023-03-28T18:46:33.493Z,3.10
2023-03-28T18:49:05.019Z,2.80
2023-03-28T18:51:35.346Z,3.00
2023-03-28T18:54:06.112Z,3.20
2023-03-28T18:56:36.976Z,3.40
2023-03-28T18:59:09.556Z,2.90
2023-03-28T19:01:43.704Z,3.50
2023-03-28T19:04:15.930Z,4.20
2023-03-28T19:06:47.439Z,3.40
2023-03-28T19:09:17.782Z,3.40
2023-03-28T19:11:52.236Z,2.70
2023-03-28T19:14:28.380Z,2.90
2023-03-28T19:16:58.586Z,2.60
2023-03-28T19:19:29.801Z,3.10
2023-03-28T19:22:00.506Z,3.30
2023-03-28T19:24:32.276Z,3.00
2023-03-28T19:27:03.967Z,2.60
2023-03-28T19:29:37.059Z,2.70
2023-03-28T19:32:08.015Z,3.00
2023-03-28T19:34:37.152Z,2.40
2023-03-28T19:37:10.936Z,3.10
2023-03-28T19:39:44.112Z,3.40
2023-03-28T19:42:19.113Z,3.80
2023-03-28T19:44:49.566Z,3.50
2023-03-28T19:47:21.047Z,3.50
2023-03-28T19:49:52.034Z,3.20
2023-03-28T19:52:23.786Z,3.00
2023-03-28T19:54:54.230Z,3.40
2023-03-28T19:57:25.585Z,3.70
2023-03-28T19:59:58.073Z,3.50
2023-03-28T20:02:29.427Z,3.50
2023-03-28T20:05:00.536Z,3.80
2023-03-28T20:07:36.552Z,3.20
2023-03-28T20:10:11.033Z,3.50
2023-03-28T20:12:42.678Z,3.30
2023-03-28T20:15:15.487Z,3.80
2023-03-28T20:17:45.927Z,3.80
2023-03-28T20:20:17.352Z,3.50
2023-03-28T20:22:47.626Z,3.60
2023-03-28T20:25:18.375Z,3.60
2023-03-28T20:27:49.936Z,3.20
2023-03-28T20:30:21.441Z,3.20
2023-03-28T20:32:52.106Z,3.10
2023-03-28T20:35:22.177Z,2.70
2023-03-28T20:37:53.151Z,4.00
2023-03-28T20:40:24.478Z,4.80
2023-03-28T20:42:53.795Z,5.40
2023-03-28T20:45:23.568Z,7.10
2023-03-28T20:47:57.418Z,7.00
2023-03-28T20:50:34.690Z,6.70
2023-03-28T20:53:06.861Z,5.90
2023-03-28T20:55:36.290Z,5.80
2023-03-28T20:58:07.912Z,6.00
2023-03-28T21:00:36.614Z,5.10
2023-03-28T21:03:05.431Z,5.50
2023-03-28T21:05:35.610Z,5.20
2023-03-28T21:08:08.704Z,5.80
2023-03-28T21:10:39.937Z,5.00
2023-03-28T21:13:08.532Z,5.30
2023-03-28T21:15:37.211Z,4.80
2023-03-28T21:18:07.369Z,4.60
2023-03-28T21:20:36.425Z,5.10
2023-03-28T21:23:05.425Z,5.20
2023-03-28T21:25:34.200Z,5.90
2023-03-28T21:28:03.048Z,5.80
2023-03-28T21:30:32.752Z,5.30
2023-03-28T21:33:03.995Z,6.40
2023-03-28T21:35:33.822Z,6.30
2023-03-28T21:38:02.551Z,6.40
2023-03-28T21:40:34.510Z,6.60
2023-03-28T21:43:03.087Z,6.20
2023-03-28T21:45:31.877Z,7.20
2023-03-28T21:48:00.693Z,7.10
2023-03-28T21:50:32.015Z,7.50
2023-03-28T21:53:01.419Z,7.10
2023-03-28T21:55:31.057Z,6.80
2023-03-28T21:57:59.601Z,6.90
2023-03-28T22:00:29.014Z,8.00
2023-03-28T22:02:57.621Z,7.10
2023-03-28T22:05:29.168Z,7.40
2023-03-28T22:07:59.672Z,7.40
2023-03-28T22:10:29.726Z,6.60
2023-03-28T22:13:01.653Z,7.10
2023-03-28T22:15:31.655Z,6.80
2023-03-28T22:18:00.430Z,7.30
2023-03-28T22:20:29.562Z,7.10
2023-03-28T22:23:01.130Z,7.30
2023-03-28T22:25:35.011Z,6.90
2023-03-28T22:28:06.913Z,6.40
2023-03-28T22:30:37.471Z,7.70
2023-03-28T22:33:07.435Z,7.10
2023-03-28T22:35:36.797Z,6.80
2023-03-28T22:38:06.522Z,8.40
2023-03-28T22:40:35.937Z,7.00
2023-03-28T22:43:05.132Z,7.10
2023-03-28T22:45:33.707Z,7.10
2023-03-28T22:48:03.698Z,6.90
2023-03-28T22:50:33.993Z,6.80
2023-03-28T22:53:02.647Z,7.60
2023-03-28T22:55:31.223Z,8.30
2023-03-28T22:57:59.891Z,6.80
2023-03-28T23:00:29.107Z,8.00
2023-03-28T23:02:57.861Z,7.40
2023-03-28T23:05:26.776Z,7.90
2023-03-28T23:07:55.671Z,7.30
2023-03-28T23:10:24.777Z,7.40
2023-03-28T23:12:54.161Z,8.10
2023-03-28T23:15:23.161Z,6.80
2023-03-28T23:17:52.520Z,7.10
2023-03-28T23:20:21.254Z,8.20
2023-03-28T23:22:50.038Z,6.60
2023-03-28T23:25:19.714Z,9.60
2023-03-28T23:27:48.348Z,8.20
2023-03-28T23:30:17.048Z,8.50
2023-03-28T23:32:45.768Z,8.50
2023-03-28T23:35:14.590Z,8.80
2023-03-28T23:37:43.301Z,8.10
2023-03-28T23:40:15.212Z,7.20
2023-03-28T23:42:45.005Z,7.30
2023-03-28T23:45:15.256Z,7.30
2023-03-28T23:47:45.516Z,7.30
2023-03-28T23:50:14.791Z,8.50
2023-03-28T23:52:43.371Z,8.60
2023-03-28T23:55:12.161Z,8.80
2023-03-28T23:57:41.765Z,9.10
